Time;durP1;ratioP1;P1;durP2;ratioP2;P2;SDS_P1;SDS_P2;PMS_P1;PMS_P2;Temp;Humidity;BMP_temperature;BMP_pressure;BME280_temperature;BME280_humidity;BME280_pressure;Samples;Min_cycle;Max_cycle;Signal;HPM_P1;HPM_P2
2023/11/22 00:00:28;;;;;;;8.70;7.83;;;10.50;99.90;;;;;;5107758;28;20641;-76
2023/11/22 00:02:53;;;;;;;0.30;0.20;;;10.50;99.90;;;;;;5123184;27;20416;-77
2023/11/22 00:05:19;;;;;;;0.30;0.23;;;10.50;99.90;;;;;;5107113;28;20170;-75
2023/11/22 00:07:45;;;;;;;0.30;0.30;;;10.50;99.90;;;;;;5123258;27;20563;-75
2023/11/22 00:10:10;;;;;;;0.30;0.20;;;10.50;99.90;;;;;;5107207;28;20199;-76
2023/11/22 00:12:38;;;;;;;0.30;0.20;;;10.40;99.90;;;;;;5107233;28;20212;-76
2023/11/22 00:15:06;;;;;;;0.30;0.20;;;10.40;99.90;;;;;;5106992;28;20182;-76
2023/11/22 00:17:32;;;;;;;0.30;0.20;;;10.40;99.90;;;;;;5122752;27;20243;-75
2023/11/22 00:20:00;;;;;;;0.30;0.20;;;10.40;99.90;;;;;;5107084;28;20200;-75
2023/11/22 00:22:27;;;;;;;1.45;1.38;;;10.40;99.90;;;;;;5106779;28;20186;-75
2023/11/22 00:24:53;;;;;;;0.40;0.40;;;10.30;99.90;;;;;;5106756;28;20192;-75
2023/11/22 00:27:19;;;;;;;0.90;0.90;;;10.30;99.90;;;;;;5106799;28;20182;-76
2023/11/22 00:29:46;;;;;;;1.57;1.50;;;10.30;99.90;;;;;;5122744;27;20640;-75
2023/11/22 00:32:12;;;;;;;1.10;1.10;;;10.30;99.90;;;;;;5107154;28;20203;-76
2023/11/22 00:34:37;;;;;;;3.00;1.75;;;10.30;99.90;;;;;;5122522;27;20202;-76
2023/11/22 00:37:03;;;;;;;0.30;0.20;;;10.20;99.90;;;;;;5106034;28;20845;-76
2023/11/22 00:39:29;;;;;;;0.30;0.20;;;10.20;99.90;;;;;;5121768;27;20341;-75
2023/11/22 00:41:55;;;;;;;0.30;0.20;;;10.20;99.90;;;;;;5122613;27;20404;-75
2023/11/22 00:44:21;;;;;;;0.30;0.20;;;10.10;99.90;;;;;;5106730;28;20697;-75
2023/11/22 00:46:47;;;;;;;0.30;0.20;;;10.10;99.90;;;;;;5122315;27;20176;-75
2023/11/22 00:49:13;;;;;;;0.30;0.20;;;10.10;99.90;;;;;;5122256;27;20439;-75
2023/11/22 00:51:39;;;;;;;2.35;2.25;;;10.00;99.90;;;;;;5122078;27;20260;-75
2023/11/22 00:54:05;;;;;;;0.30;0.20;;;10.00;99.90;;;;;;5106608;28;20200;-76
2023/11/22 00:56:30;;;;;;;0.30;0.20;;;10.00;99.90;;;;;;5106588;27;20176;-75
2023/11/22 00:58:59;;;;;;;0.47;0.47;;;10.00;99.90;;;;;;5106282;28;21044;-75
2023/11/22 01:01:25;;;;;;;0.30;0.20;;;10.00;99.90;;;;;;5106619;28;20355;-75
2023/11/22 01:03:51;;;;;;;0.30;0.20;;;9.90;99.90;;;;;;5106218;28;20392;-75
2023/11/22 01:06:20;;;;;;;3.70;3.50;;;9.90;99.90;;;;;;5121972;27;20279;-75
2023/11/22 01:08:47;;;;;;;0.50;0.50;;;9.90;99.90;;;;;;5106484;27;20424;-75
2023/11/22 01:11:13;;;;;;;2.45;2.35;;;9.80;99.90;;;;;;5121708;27;20396;-75
2023/11/22 01:13:43;;;;;;;1.45;1.40;;;9.80;99.90;;;;;;5106200;28;20191;-76
2023/11/22 01:16:12;;;;;;;0.40;0.30;;;9.80;99.90;;;;;;5121544;27;20232;-77
2023/11/22 01:18:38;;;;;;;0.30;0.20;;;9.80;99.90;;;;;;5105928;28;20463;-76
2023/11/22 01:21:04;;;;;;;0.30;0.20;;;9.80;99.90;;;;;;5106067;28;20171;-75
2023/11/22 01:23:31;;;;;;;0.30;0.30;;;9.70;99.90;;;;;;5121675;27;20424;-75
2023/11/22 01:25:58;;;;;;;0.30;0.20;;;9.70;99.90;;;;;;5105688;28;20176;-76
2023/11/22 01:28:26;;;;;;;0.30;0.20;;;9.70;99.90;;;;;;5105790;28;20191;-75
2023/11/22 01:30:53;;;;;;;2.15;2.05;;;9.60;99.90;;;;;;5121519;27;20211;-75
2023/11/22 01:33:20;;;;;;;0.30;0.20;;;9.60;99.90;;;;;;5105847;28;20216;-75
2023/11/22 01:35:45;;;;;;;0.30;0.20;;;9.60;99.90;;;;;;5121654;28;20187;-75
2023/11/22 01:38:11;;;;;;;0.30;0.20;;;9.60;99.90;;;;;;5126104;27;20195;-75
2023/11/22 01:40:44;;;;;;;0.60;0.60;;;9.60;99.90;;;;;;5128309;27;20520;-75
2023/11/22 01:43:19;;;;;;;0.30;0.20;;;9.60;99.90;;;;;;5128584;27;20199;-76
2023/11/22 01:45:45;;;;;;;0.30;0.20;;;9.60;99.90;;;;;;5112663;27;20183;-75
2023/11/22 01:48:12;;;;;;;0.30;0.30;;;9.60;99.90;;;;;;5112636;27;20225;-75
2023/11/22 01:50:42;;;;;;;0.30;0.20;;;9.60;99.90;;;;;;5128274;27;20176;-76
2023/11/22 01:53:12;;;;;;;0.30;0.20;;;9.60;99.90;;;;;;5112783;27;20196;-76
2023/11/22 01:55:40;;;;;;;1.75;1.65;;;9.50;99.90;;;;;;5112901;27;20255;-76
2023/11/22 01:58:06;;;;;;;2.15;1.95;;;9.50;99.90;;;;;;5112511;27;20287;-76
2023/11/22 02:00:38;;;;;;;0.40;0.40;;;9.50;99.90;;;;;;5112954;27;20184;-76
2023/11/22 02:03:03;;;;;;;0.30;0.20;;;9.50;99.90;;;;;;5128325;27;20217;-76
2023/11/22 02:05:29;;;;;;;0.30;0.20;;;9.50;99.90;;;;;;5112097;27;20175;-75
2023/11/22 02:07:55;;;;;;;0.30;0.20;;;9.50;99.90;;;;;;5112557;27;20725;-76
2023/11/22 02:10:21;;;;;;;0.30;0.20;;;9.50;99.90;;;;;;5112786;27;20866;-75
2023/11/22 02:12:46;;;;;;;29.40;26.90;;;9.50;99.90;;;;;;5112934;27;20235;-76
2023/11/22 02:15:12;;;;;;;0.30;0.20;;;9.50;99.90;;;;;;5112190;28;20175;-75
2023/11/22 02:17:39;;;;;;;0.30;0.30;;;9.50;99.90;;;;;;5112123;28;20724;-75
2023/11/22 02:20:09;;;;;;;0.30;0.30;;;9.50;99.90;;;;;;5128282;27;20488;-76
2023/11/22 02:22:46;;;;;;;0.30;0.20;;;9.50;99.90;;;;;;5112357;28;20419;-76
2023/11/22 02:25:12;;;;;;;0.40;0.30;;;9.50;99.90;;;;;;5128040;27;20167;-75
2023/11/22 02:27:39;;;;;;;2.30;2.20;;;9.50;99.90;;;;;;5112271;27;20521;-75
2023/11/22 02:30:06;;;;;;;1.05;1.05;;;9.50;99.90;;;;;;5128296;27;20202;-75
2023/11/22 02:32:33;;;;;;;0.30;0.20;;;9.50;99.90;;;;;;5127990;27;20223;-75
2023/11/22 02:34:59;;;;;;;0.30;0.30;;;9.50;99.90;;;;;;5127853;27;20243;-75
2023/11/22 02:37:25;;;;;;;1.93;1.83;;;9.50;99.90;;;;;;5112206;27;20175;-76
2023/11/22 02:40:27;;;;;;;0.30;0.30;;;9.50;99.90;;;;;;5127120;27;20446;-76
2023/11/22 02:42:53;;;;;;;0.30;0.20;;;9.50;99.90;;;;;;5089080;28;20781;-76
2023/11/22 02:45:24;;;;;;;0.30;0.30;;;9.50;99.90;;;;;;5107131;27;20652;-76
2023/11/22 02:47:50;;;;;;;0.30;0.22;;;9.50;99.90;;;;;;5112047;27;20172;-76
2023/11/22 02:50:16;;;;;;;0.30;0.20;;;9.50;99.90;;;;;;5123587;27;20176;-75
2023/11/22 02:52:42;;;;;;;0.30;0.20;;;9.50;99.90;;;;;;5108786;28;20345;-75
2023/11/22 02:55:09;;;;;;;0.30;0.20;;;9.50;99.90;;;;;;5108763;28;20381;-76
2023/11/22 02:57:36;;;;;;;0.30;0.20;;;9.50;99.90;;;;;;5124709;27;20184;-75
2023/11/22 03:00:04;;;;;;;10.25;9.55;;;9.50;99.90;;;;;;5124630;27;20180;-75
2023/11/22 03:02:29;;;;;;;0.30;0.20;;;9.50;99.90;;;;;;5124822;27;20261;-75
2023/11/22 03:04:55;;;;;;;0.30;0.20;;;9.50;99.90;;;;;;5108567;28;20215;-76
2023/11/22 03:07:21;;;;;;;0.30;0.30;;;9.50;99.90;;;;;;5123753;27;20416;-75
2023/11/22 03:09:46;;;;;;;0.30;0.20;;;9.50;99.90;;;;;;5108384;28;20406;-75
2023/11/22 03:12:13;;;;;;;0.30;0.30;;;9.50;99.90;;;;;;5123965;27;20613;-76
2023/11/22 03:14:39;;;;;;;0.30;0.20;;;9.50;99.90;;;;;;5108649;28;20521;-75
2023/11/22 03:17:05;;;;;;;0.30;0.20;;;9.60;99.90;;;;;;5123897;27;20271;-75
2023/11/22 03:19:33;;;;;;;0.30;0.20;;;9.60;99.90;;;;;;5108533;27;20706;-75
2023/11/22 03:22:00;;;;;;;0.30;0.20;;;9.60;99.90;;;;;;5124483;27;20245;-75
2023/11/22 03:24:25;;;;;;;0.30;0.20;;;9.60;99.90;;;;;;5108091;28;20501;-75
2023/11/22 03:26:52;;;;;;;0.30;0.20;;;9.60;99.90;;;;;;5108224;28;20180;-76
2023/11/22 03:29:18;;;;;;;0.75;0.73;;;9.60;99.90;;;;;;5108102;28;20590;-75
2023/11/22 03:31:46;;;;;;;2.93;2.83;;;9.60;99.90;;;;;;5108049;28;20207;-76
2023/11/22 03:34:13;;;;;;;0.52;0.52;;;9.60;99.90;;;;;;5123776;27;20641;-75
2023/11/22 03:36:40;;;;;;;0.30;0.20;;;9.50;99.90;;;;;;5123650;27;20211;-76
2023/11/22 03:39:06;;;;;;;0.30;0.20;;;9.60;99.90;;;;;;5108042;28;20711;-75
2023/11/22 03:41:32;;;;;;;0.30;0.20;;;9.60;99.90;;;;;;5107737;28;20176;-75
2023/11/22 03:43:57;;;;;;;2.33;2.23;;;9.60;99.90;;;;;;5106766;28;20204;-75
2023/11/22 03:46:23;;;;;;;0.30;0.20;;;9.60;99.90;;;;;;5107758;28;20528;-76
2023/11/22 03:48:48;;;;;;;1.97;1.90;;;9.60;99.90;;;;;;5123622;27;20609;-75
2023/11/22 03:51:14;;;;;;;0.30;0.20;;;9.60;99.90;;;;;;5123018;27;20218;-76
2023/11/22 03:53:39;;;;;;;0.30;0.20;;;9.60;99.90;;;;;;5123449;27;20200;-75
2023/11/22 03:56:05;;;;;;;1.67;1.57;;;9.60;99.90;;;;;;5107684;28;20180;-76
2023/11/22 03:58:31;;;;;;;0.30;0.20;;;9.60;99.90;;;;;;5123185;27;20668;-75
2023/11/22 04:00:58;;;;;;;0.30;0.20;;;9.60;99.90;;;;;;5107463;28;20221;-76
2023/11/22 04:03:24;;;;;;;0.30;0.20;;;9.60;99.90;;;;;;5107473;27;20705;-76
2023/11/22 04:05:49;;;;;;;0.30;0.20;;;9.60;99.90;;;;;;5107689;28;20179;-76
2023/11/22 04:08:15;;;;;;;1.03;0.93;;;9.60;99.90;;;;;;5123096;27;20210;-75
2023/11/22 04:10:41;;;;;;;0.30;0.20;;;9.60;99.90;;;;;;5107144;28;20548;-75
2023/11/22 04:13:06;;;;;;;0.30;0.20;;;9.60;99.90;;;;;;5107393;28;20257;-76
2023/11/22 04:15:32;;;;;;;0.30;0.20;;;9.60;99.90;;;;;;5106671;28;20160;-76
2023/11/22 04:17:57;;;;;;;0.30;0.20;;;9.60;99.90;;;;;;5107003;28;20200;-76
2023/11/22 04:20:23;;;;;;;1.90;1.80;;;9.60;99.90;;;;;;5122686;27;20655;-75
2023/11/22 04:22:48;;;;;;;0.30;0.30;;;9.60;99.90;;;;;;5107162;28;20180;-75
2023/11/22 04:25:14;;;;;;;3.30;2.53;;;9.60;99.90;;;;;;5122788;27;20178;-75
2023/11/22 04:27:41;;;;;;;0.40;0.20;;;9.60;99.90;;;;;;5107101;28;20430;-75
2023/11/22 04:30:09;;;;;;;0.30;0.20;;;9.60;99.90;;;;;;5107165;28;20617;-75
2023/11/22 04:32:36;;;;;;;0.30;0.20;;;9.70;99.90;;;;;;5122368;27;20220;-76
2023/11/22 04:35:05;;;;;;;0.68;0.57;;;9.70;99.90;;;;;;5122498;27;20197;-75
2023/11/22 04:37:32;;;;;;;0.30;0.20;;;9.70;99.90;;;;;;5122278;27;20553;-76
2023/11/22 04:39:58;;;;;;;0.30;0.20;;;9.70;99.90;;;;;;5106696;28;20195;-76
2023/11/22 04:42:24;;;;;;;0.30;0.20;;;9.70;99.90;;;;;;5122356;27;20304;-76
2023/11/22 04:44:50;;;;;;;0.30;0.20;;;9.70;99.90;;;;;;5106858;28;20263;-75
2023/11/22 04:47:15;;;;;;;0.30;0.20;;;9.70;99.90;;;;;;5104688;28;20192;-75
2023/11/22 04:49:41;;;;;;;0.30;0.30;;;9.70;99.90;;;;;;5106629;28;20194;-75
2023/11/22 04:52:07;;;;;;;0.30;0.20;;;9.70;99.90;;;;;;5105407;28;20211;-75
2023/11/22 04:54:34;;;;;;;0.30;0.20;;;9.80;99.90;;;;;;5122243;27;20574;-75
2023/11/22 04:56:59;;;;;;;0.30;0.20;;;9.70;99.90;;;;;;5106450;28;20401;-76
2023/11/22 04:59:25;;;;;;;2.10;2.00;;;9.70;99.90;;;;;;5106672;28;20554;-76
2023/11/22 05:01:50;;;;;;;0.30;0.20;;;9.70;99.90;;;;;;5106438;28;20175;-76
2023/11/22 05:04:18;;;;;;;0.30;0.20;;;9.70;99.90;;;;;;5106273;28;20203;-75
2023/11/22 05:06:44;;;;;;;0.30;0.20;;;9.70;99.90;;;;;;5122178;27;20415;-76
2023/11/22 05:09:10;;;;;;;0.30;0.20;;;9.70;99.90;;;;;;5105877;28;20202;-75
2023/11/22 05:11:36;;;;;;;0.30;0.30;;;9.70;99.90;;;;;;5121209;27;20242;-76
2023/11/22 05:14:02;;;;;;;0.30;0.20;;;9.70;99.90;;;;;;5105860;28;20188;-78
2023/11/22 05:16:28;;;;;;;0.30;0.20;;;9.70;99.90;;;;;;5121127;27;20462;-75
2023/11/22 05:18:53;;;;;;;0.30;0.20;;;9.70;99.90;;;;;;5121785;27;20207;-75
2023/11/22 05:21:19;;;;;;;0.30;0.20;;;9.70;99.90;;;;;;5105934;28;20201;-76
2023/11/22 05:23:44;;;;;;;0.30;0.20;;;9.70;99.90;;;;;;5105935;28;20201;-75
2023/11/22 05:26:10;;;;;;;0.30;0.20;;;9.60;99.90;;;;;;5119510;27;20180;-75
2023/11/22 05:28:36;;;;;;;1.77;1.67;;;9.60;99.90;;;;;;5104068;28;20262;-76
2023/11/22 05:31:01;;;;;;;3.50;2.43;;;9.60;99.90;;;;;;5105125;28;20207;-75
2023/11/22 05:33:27;;;;;;;0.30;0.20;;;9.60;99.90;;;;;;5106044;28;20724;-75
2023/11/22 05:35:53;;;;;;;0.30;0.20;;;9.60;99.90;;;;;;5105606;28;20536;-75
2023/11/22 05:38:19;;;;;;;11.93;11.35;;;9.60;99.90;;;;;;5105770;28;20668;-76
2023/11/22 05:40:45;;;;;;;0.30;0.20;;;9.60;99.90;;;;;;5105105;28;20178;-75
2023/11/22 05:43:10;;;;;;;0.60;0.60;;;9.50;99.90;;;;;;5121346;28;20195;-76
2023/11/22 05:45:36;;;;;;;0.30;0.20;;;9.50;99.90;;;;;;5105064;28;20492;-76
2023/11/22 05:48:02;;;;;;;0.30;0.20;;;9.50;99.90;;;;;;5100579;28;20889;-75
2023/11/22 05:50:28;;;;;;;0.30;0.20;;;9.50;99.90;;;;;;5103606;28;20260;-75
2023/11/22 05:52:53;;;;;;;0.70;0.67;;;9.50;99.90;;;;;;5104849;28;20489;-75
2023/11/22 05:55:19;;;;;;;0.30;0.30;;;9.50;99.90;;;;;;5120313;28;20552;-76
2023/11/22 05:57:44;;;;;;;0.60;0.60;;;9.50;99.90;;;;;;5115374;28;20547;-75
2023/11/22 06:00:10;;;;;;;0.30;0.20;;;9.50;99.90;;;;;;5098486;28;20172;-76
2023/11/22 06:02:38;;;;;;;0.30;0.20;;;9.50;99.90;;;;;;5104638;28;20656;-76
2023/11/22 06:05:05;;;;;;;0.30;0.20;;;9.50;99.90;;;;;;5104191;28;20203;-76
2023/11/22 06:07:31;;;;;;;0.30;0.30;;;9.50;99.90;;;;;;5105094;28;20196;-76
2023/11/22 06:09:57;;;;;;;0.63;0.63;;;9.40;99.90;;;;;;5101318;28;20227;-76
2023/11/22 06:12:23;;;;;;;7.00;6.07;;;9.40;99.90;;;;;;5102374;28;20272;-76
2023/11/22 06:14:49;;;;;;;9.77;9.38;;;9.40;99.90;;;;;;5119185;28;20898;-75
2023/11/22 06:17:14;;;;;;;0.60;0.57;;;9.50;99.90;;;;;;5118136;28;20247;-75
2023/11/22 06:19:43;;;;;;;0.30;0.20;;;9.50;99.90;;;;;;5114849;28;20203;-75
2023/11/22 06:22:09;;;;;;;0.30;0.20;;;9.50;99.90;;;;;;5088758;28;20199;-76
2023/11/22 06:24:36;;;;;;;0.30;0.20;;;9.50;99.90;;;;;;5106371;28;20647;-75
2023/11/22 06:27:02;;;;;;;2.15;2.05;;;9.50;99.90;;;;;;5108129;28;20200;-75
2023/11/22 06:29:29;;;;;;;0.30;0.20;;;9.50;99.90;;;;;;5105861;28;20207;-76
2023/11/22 06:31:54;;;;;;;0.30;0.20;;;9.50;99.90;;;;;;5106836;28;20212;-76
2023/11/22 06:34:20;;;;;;;0.30;0.20;;;9.50;99.90;;;;;;5107233;28;20203;-76
2023/11/22 06:36:46;;;;;;;0.70;0.70;;;9.50;99.90;;;;;;5105381;28;20184;-76
2023/11/22 06:39:13;;;;;;;1.10;1.10;;;9.50;99.90;;;;;;5107244;28;20213;-76
2023/11/22 06:41:42;;;;;;;0.30;0.20;;;9.50;99.90;;;;;;5106313;28;20176;-75
2023/11/22 06:44:09;;;;;;;0.30;0.20;;;9.50;99.90;;;;;;5106462;28;20203;-75
2023/11/22 06:46:35;;;;;;;1.05;1.05;;;9.50;99.90;;;;;;5104124;28;20168;-76
2023/11/22 06:49:00;;;;;;;0.30;0.20;;;9.50;99.90;;;;;;5107475;28;20200;-75
2023/11/22 06:51:26;;;;;;;0.30;0.20;;;9.50;99.90;;;;;;5099686;28;20216;-76
2023/11/22 06:53:54;;;;;;;0.30;0.20;;;9.50;99.90;;;;;;5107447;28;20202;-75
2023/11/22 06:56:20;;;;;;;0.40;0.20;;;9.50;99.90;;;;;;5106381;28;20186;-75
2023/11/22 06:58:45;;;;;;;5.33;2.23;;;9.50;99.90;;;;;;5104851;28;20275;-75
2023/11/22 07:01:11;;;;;;;0.30;0.20;;;9.50;99.90;;;;;;5105365;28;20180;-75
2023/11/22 07:03:40;;;;;;;0.30;0.20;;;9.50;99.90;;;;;;5100406;28;20663;-75
2023/11/22 07:06:07;;;;;;;0.30;0.20;;;9.50;99.90;;;;;;5118049;27;20416;-76
2023/11/22 07:08:34;;;;;;;0.30;0.20;;;9.50;99.90;;;;;;5100968;28;20187;-75
2023/11/22 07:11:00;;;;;;;0.30;0.20;;;9.50;99.90;;;;;;5098196;28;20184;-75
2023/11/22 07:13:26;;;;;;;18.00;16.70;;;9.60;99.90;;;;;;5108813;27;20448;-76
2023/11/22 07:15:53;;;;;;;0.30;0.20;;;9.60;99.90;;;;;;5100894;28;20753;-75
2023/11/22 07:18:19;;;;;;;0.30;0.30;;;9.60;99.90;;;;;;5100411;28;20386;-75
2023/11/22 07:20:48;;;;;;;0.50;0.50;;;9.60;99.90;;;;;;5100895;28;20176;-75
2023/11/22 07:23:15;;;;;;;0.40;0.40;;;9.60;99.90;;;;;;5103393;28;20287;-75
2023/11/22 07:25:41;;;;;;;1.00;0.98;;;9.60;99.90;;;;;;5101592;28;20172;-75
2023/11/22 07:28:07;;;;;;;0.30;0.20;;;9.60;99.90;;;;;;5105359;28;20594;-75
2023/11/22 07:30:33;;;;;;;0.30;0.20;;;9.60;99.90;;;;;;5098391;28;20396;-75
2023/11/22 07:32:59;;;;;;;0.30;0.30;;;9.70;99.90;;;;;;5102709;28;20296;-75
2023/11/22 07:35:25;;;;;;;1.23;1.23;;;9.70;99.90;;;;;;5108387;27;20188;-75
2023/11/22 07:37:51;;;;;;;0.30;0.20;;;9.70;99.90;;;;;;5086718;28;20767;-75
2023/11/22 07:40:19;;;;;;;0.30;0.20;;;9.70;99.90;;;;;;5102363;28;20183;-75
2023/11/22 07:42:45;;;;;;;0.30;0.30;;;9.70;99.90;;;;;;5107394;27;20908;-75
2023/11/22 07:45:13;;;;;;;0.30;0.20;;;9.80;99.90;;;;;;5100268;28;20175;-75
2023/11/22 07:47:43;;;;;;;0.30;0.20;;;9.80;99.90;;;;;;5099947;28;20472;-76
2023/11/22 07:50:11;;;;;;;3.83;3.65;;;9.90;99.90;;;;;;5099061;28;20305;-75
2023/11/22 07:52:38;;;;;;;0.30;0.20;;;9.80;99.90;;;;;;5101824;28;20211;-76
2023/11/22 07:55:07;;;;;;;0.30;0.20;;;9.90;99.90;;;;;;5095579;27;20187;-76
2023/11/22 07:57:34;;;;;;;0.30;0.30;;;9.90;99.90;;;;;;5098450;28;20227;-75
2023/11/22 08:00:00;;;;;;;0.88;0.73;;;9.90;99.90;;;;;;5093008;28;20785;-75
2023/11/22 08:02:27;;;;;;;0.30;0.30;;;10.00;99.90;;;;;;5102729;28;20175;-75
2023/11/22 08:04:52;;;;;;;0.30;0.20;;;10.00;99.90;;;;;;5102820;28;20276;-76
2023/11/22 08:07:18;;;;;;;0.30;0.20;;;10.00;99.90;;;;;;5099636;28;20650;-76
2023/11/22 08:09:44;;;;;;;0.30;0.20;;;9.90;99.90;;;;;;5101661;28;20199;-75
2023/11/22 08:12:11;;;;;;;0.47;0.47;;;10.00;99.90;;;;;;5101573;27;20285;-76
2023/11/22 08:14:37;;;;;;;0.77;0.77;;;10.00;99.90;;;;;;5101902;28;20203;-75
2023/11/22 08:17:05;;;;;;;2.63;2.55;;;10.00;99.90;;;;;;5101389;28;20239;-76
2023/11/22 08:19:31;;;;;;;0.30;0.30;;;10.00;99.90;;;;;;5114807;27;20555;-76
2023/11/22 08:21:57;;;;;;;0.30;0.20;;;10.00;99.90;;;;;;5100116;28;20701;-75
2023/11/22 08:24:22;;;;;;;0.30;0.20;;;10.00;99.90;;;;;;5099054;28;20195;-75
2023/11/22 08:26:48;;;;;;;0.30;0.20;;;10.00;99.90;;;;;;5101455;28;20176;-76
2023/11/22 08:29:14;;;;;;;0.30;0.20;;;10.00;99.90;;;;;;5102349;28;20599;-76
2023/11/22 08:31:40;;;;;;;1.15;1.05;;;10.10;99.90;;;;;;5100728;28;20203;-76
2023/11/22 08:34:07;;;;;;;0.30;0.20;;;10.10;99.90;;;;;;5101838;28;20199;-76
2023/11/22 08:36:34;;;;;;;0.30;0.20;;;10.10;99.90;;;;;;5100624;28;20198;-76
2023/11/22 08:39:00;;;;;;;0.30;0.20;;;10.10;99.90;;;;;;5093424;28;20763;-76
2023/11/22 08:41:30;;;;;;;0.30;0.20;;;10.10;99.90;;;;;;5099447;28;20631;-75
2023/11/22 08:43:56;;;;;;;0.30;0.22;;;10.20;99.90;;;;;;5103462;28;20552;-75
2023/11/22 08:46:23;;;;;;;0.30;0.20;;;10.20;99.90;;;;;;5102302;28;20186;-75
2023/11/22 08:48:50;;;;;;;0.30;0.20;;;10.20;99.90;;;;;;5104754;28;20211;-76
2023/11/22 08:51:17;;;;;;;1.88;1.85;;;10.20;99.90;;;;;;5103816;28;20216;-75
2023/11/22 08:53:44;;;;;;;0.30;0.20;;;10.20;99.90;;;;;;5099817;28;20195;-76
2023/11/22 08:56:11;;;;;;;0.30;0.20;;;10.30;99.90;;;;;;5102461;28;20194;-75
2023/11/22 08:58:38;;;;;;;0.40;0.20;;;10.30;99.90;;;;;;5099211;28;20207;-75
2023/11/22 09:01:05;;;;;;;0.30;0.20;;;10.30;99.90;;;;;;5102137;28;20561;-76
2023/11/22 09:03:31;;;;;;;0.75;0.75;;;10.40;99.90;;;;;;5102039;28;20478;-76
2023/11/22 09:05:57;;;;;;;0.30;0.20;;;10.50;99.90;;;;;;5102477;28;20274;-76
2023/11/22 09:08:23;;;;;;;3.25;3.05;;;10.50;99.90;;;;;;5114302;27;20627;-76
2023/11/22 09:10:50;;;;;;;0.30;0.20;;;10.60;99.90;;;;;;5086583;28;20202;-76
2023/11/22 09:13:16;;;;;;;0.30;0.20;;;10.70;99.90;;;;;;5102940;28;20672;-75
2023/11/22 09:15:44;;;;;;;0.40;0.40;;;10.70;99.90;;;;;;5122911;27;20263;-76
2023/11/22 09:18:12;;;;;;;0.30;0.20;;;10.80;99.90;;;;;;5103246;28;20436;-76
2023/11/22 09:20:38;;;;;;;0.30;0.20;;;10.80;99.90;;;;;;5100959;28;20176;-76
2023/11/22 09:23:04;;;;;;;0.30;0.20;;;10.80;99.90;;;;;;5104336;27;20208;-75
2023/11/22 09:25:30;;;;;;;0.30;0.20;;;10.80;99.90;;;;;;5099459;28;20730;-76
2023/11/22 09:27:58;;;;;;;0.30;0.20;;;10.80;99.90;;;;;;5100871;28;20451;-76
2023/11/22 09:30:38;;;;;;;2.88;2.17;;;10.80;99.90;;;;;;5102899;28;20240;-77
2023/11/22 09:33:07;;;;;;;4.40;4.15;;;10.80;99.90;;;;;;5092205;28;20670;-75
2023/11/22 09:35:33;;;;;;;0.30;0.20;;;10.80;99.90;;;;;;5102300;28;20199;-76
2023/11/22 09:38:00;;;;;;;0.30;0.20;;;10.90;99.90;;;;;;5102574;28;20212;-76
2023/11/22 09:40:31;;;;;;;0.32;0.30;;;10.90;99.90;;;;;;5096165;28;20629;-76
2023/11/22 09:42:57;;;;;;;0.30;0.20;;;10.90;99.90;;;;;;5096755;28;20309;-75
2023/11/22 09:45:25;;;;;;;1.85;1.75;;;10.90;99.90;;;;;;5108367;28;20176;-75
2023/11/22 09:47:51;;;;;;;0.30;0.20;;;11.00;99.90;;;;;;5086692;28;20445;-76
2023/11/22 09:50:42;;;;;;;0.30;0.20;;;11.00;99.90;;;;;;5099324;28;20175;-77
2023/11/22 09:53:19;;;;;;;1.05;1.05;;;11.00;99.90;;;;;;5072775;28;20239;-76
2023/11/22 09:55:45;;;;;;;0.30;0.20;;;11.10;99.90;;;;;;5091228;28;20186;-76
2023/11/22 09:58:17;;;;;;;5.43;5.00;;;11.10;99.90;;;;;;5093987;28;20206;-76
2023/11/22 10:00:43;;;;;;;1.30;1.25;;;11.20;99.90;;;;;;5099468;28;20255;-76
2023/11/22 10:03:13;;;;;;;0.30;0.20;;;11.20;99.90;;;;;;5098853;28;20333;-75
2023/11/22 10:05:42;;;;;;;0.30;0.20;;;11.30;99.90;;;;;;5102671;28;20211;-76
2023/11/22 10:08:09;;;;;;;4.68;4.38;;;11.30;99.90;;;;;;5102246;28;20222;-76
2023/11/22 10:10:36;;;;;;;0.40;0.40;;;11.30;99.90;;;;;;5096355;28;20176;-75
2023/11/22 10:13:03;;;;;;;0.30;0.20;;;11.30;99.90;;;;;;5095516;28;20292;-76
2023/11/22 10:15:29;;;;;;;0.30;0.20;;;11.40;99.90;;;;;;5097275;28;20755;-76
2023/11/22 10:18:02;;;;;;;0.30;0.20;;;11.40;99.90;;;;;;5101096;27;20633;-76
2023/11/22 10:20:39;;;;;;;0.30;0.20;;;11.40;99.90;;;;;;5088528;28;20504;-76
2023/11/22 10:23:09;;;;;;;0.30;0.20;;;11.40;99.90;;;;;;5099908;28;20208;-76
2023/11/22 10:25:36;;;;;;;0.30;0.30;;;11.40;99.90;;;;;;5098727;28;20596;-76
2023/11/22 10:28:02;;;;;;;0.30;0.20;;;11.50;99.90;;;;;;5098248;28;20199;-76
2023/11/22 10:30:28;;;;;;;0.30;0.20;;;11.50;99.90;;;;;;5100529;28;20308;-77
2023/11/22 10:32:55;;;;;;;0.40;0.40;;;11.60;99.90;;;;;;5092768;28;20269;-77
2023/11/22 10:35:22;;;;;;;0.60;0.60;;;11.70;99.90;;;;;;5094537;28;20173;-77
2023/11/22 10:37:48;;;;;;;0.30;0.20;;;11.80;99.90;;;;;;5085265;28;20172;-76
2023/11/22 10:40:15;;;;;;;0.30;0.20;;;11.90;99.90;;;;;;5088748;28;20818;-76
2023/11/22 10:42:45;;;;;;;0.30;0.20;;;11.90;99.90;;;;;;5102817;28;20192;-77
2023/11/22 10:45:13;;;;;;;0.30;0.20;;;11.90;99.90;;;;;;5103381;27;20659;-77
2023/11/22 10:47:41;;;;;;;0.85;0.85;;;11.90;99.90;;;;;;5103392;28;20260;-77
2023/11/22 10:50:08;;;;;;;2.42;2.33;;;11.90;99.90;;;;;;5102747;28;20199;-77
2023/11/22 10:52:38;;;;;;;4.38;3.33;;;11.90;99.90;;;;;;5101242;28;20477;-77
2023/11/22 10:55:06;;;;;;;0.30;0.20;;;11.90;99.90;;;;;;5101872;28;20683;-77
2023/11/22 10:57:36;;;;;;;0.40;0.30;;;12.00;99.90;;;;;;5103127;28;20313;-77
2023/11/22 11:00:07;;;;;;;0.30;0.20;;;12.00;99.90;;;;;;5099452;28;20274;-77
2023/11/22 11:02:41;;;;;;;0.30;0.20;;;12.00;99.90;;;;;;5098450;28;20183;-77
2023/11/22 11:05:20;;;;;;;0.30;0.20;;;12.00;99.90;;;;;;5095620;28;20667;-77
2023/11/22 11:08:15;;;;;;;0.30;0.20;;;12.00;99.90;;;;;;5100598;27;20541;-77
2023/11/22 11:10:42;;;;;;;0.30;0.20;;;12.00;99.90;;;;;;5087526;28;20207;-76
2023/11/22 11:13:12;;;;;;;0.30;0.20;;;12.00;99.90;;;;;;5094856;28;20251;-76
2023/11/22 11:15:40;;;;;;;0.30;0.20;;;12.00;99.90;;;;;;5099857;27;20177;-77
2023/11/22 11:18:07;;;;;;;1.17;1.17;;;12.00;99.90;;;;;;5098031;28;20530;-76
2023/11/22 11:20:53;;;;;;;0.30;0.22;;;11.90;99.90;;;;;;5102751;28;20548;-77
2023/11/22 11:23:40;;;;;;;0.30;0.20;;;11.90;99.90;;;;;;5102936;28;20207;-76
2023/11/22 11:26:16;;;;;;;0.30;0.20;;;11.90;99.90;;;;;;5112922;27;20429;-77
2023/11/22 11:28:50;;;;;;;0.30;0.20;;;11.90;99.90;;;;;;5098651;28;20192;-77
2023/11/22 11:31:16;;;;;;;4.40;4.20;;;11.80;99.90;;;;;;5100411;28;20879;-77
2023/11/22 11:33:55;;;;;;;0.30;0.20;;;11.80;99.90;;;;;;5104801;27;20204;-77
2023/11/22 11:36:32;;;;;;;0.30;0.20;;;11.80;99.90;;;;;;5096035;28;20501;-77
2023/11/22 11:39:08;;;;;;;0.30;0.20;;;11.80;99.90;;;;;;5104398;28;20509;-77
2023/11/22 11:41:39;;;;;;;0.77;0.73;;;11.80;99.90;;;;;;5100209;28;20222;-78
2023/11/22 11:44:09;;;;;;;0.30;0.20;;;11.80;99.90;;;;;;5094529;28;20458;-76
2023/11/22 11:46:36;;;;;;;0.30;0.20;;;11.80;99.90;;;;;;5117823;27;20245;-76
2023/11/22 11:49:09;;;;;;;0.50;0.50;;;11.70;99.90;;;;;;5101110;28;20571;-77
2023/11/22 11:51:36;;;;;;;0.30;0.20;;;11.70;99.90;;;;;;5094839;28;20208;-76
2023/11/22 11:54:02;;;;;;;0.30;0.20;;;11.70;99.90;;;;;;5096609;28;20295;-77
2023/11/22 11:56:29;;;;;;;0.30;0.30;;;11.70;99.90;;;;;;5094634;28;20486;-76
2023/11/22 11:59:00;;;;;;;0.30;0.20;;;11.70;99.90;;;;;;5089137;28;20199;-76
2023/11/22 12:01:29;;;;;;;0.30;0.30;;;11.60;99.90;;;;;;5085943;28;20177;-76
2023/11/22 12:03:55;;;;;;;0.30;0.20;;;11.60;99.90;;;;;;5082535;28;20339;-77
2023/11/22 12:06:21;;;;;;;0.30;0.20;;;11.60;99.90;;;;;;5091445;28;20275;-77
2023/11/22 12:08:47;;;;;;;0.30;0.20;;;11.60;99.90;;;;;;5094978;28;20582;-75
2023/11/22 12:11:13;;;;;;;0.30;0.20;;;11.70;99.90;;;;;;5089865;28;20293;-75
2023/11/22 12:13:43;;;;;;;0.30;0.20;;;11.70;99.90;;;;;;5114570;27;20428;-76
2023/11/22 12:16:10;;;;;;;0.30;0.30;;;11.70;99.90;;;;;;5097240;28;20269;-75
2023/11/22 12:18:43;;;;;;;0.40;0.40;;;11.60;99.90;;;;;;5094176;28;20227;-76
2023/11/22 12:21:18;;;;;;;0.30;0.20;;;11.70;99.90;;;;;;5095020;28;20248;-76
2023/11/22 12:23:48;;;;;;;0.75;0.73;;;11.70;99.90;;;;;;5119375;27;20594;-77
2023/11/22 12:26:15;;;;;;;0.40;0.35;;;11.70;99.90;;;;;;5091791;28;20179;-76
2023/11/22 12:28:44;;;;;;;0.30;0.20;;;11.70;99.90;;;;;;5092966;28;20198;-77
2023/11/22 12:31:12;;;;;;;0.30;0.20;;;11.70;99.90;;;;;;5097974;28;20255;-77
2023/11/22 12:33:39;;;;;;;0.30;0.20;;;11.70;99.90;;;;;;5097756;28;20227;-77
2023/11/22 12:36:07;;;;;;;0.30;0.20;;;11.60;99.90;;;;;;5092938;28;20191;-75
2023/11/22 12:38:34;;;;;;;0.30;0.20;;;11.60;99.90;;;;;;5095074;28;20832;-76
2023/11/22 12:41:03;;;;;;;0.30;0.20;;;11.60;99.90;;;;;;5093687;28;20180;-76
2023/11/22 12:43:32;;;;;;;0.30;0.30;;;11.60;99.90;;;;;;5091571;28;20203;-76
2023/11/22 12:46:02;;;;;;;0.30;0.20;;;11.60;99.90;;;;;;5096010;28;20275;-76
2023/11/22 12:48:32;;;;;;;0.30;0.20;;;11.60;99.90;;;;;;5095018;28;20207;-75
2023/11/22 12:50:58;;;;;;;0.30;0.20;;;11.60;99.90;;;;;;5093215;28;20206;-76
2023/11/22 12:53:33;;;;;;;0.30;0.20;;;11.60;99.90;;;;;;5089400;28;20535;-77